createdAt,value
2023-02-15T05:31:19.115Z,101925.06
2023-02-15T05:35:35.894Z,101924.13
2023-02-15T05:39:43.003Z,101925.91
2023-02-15T05:43:54.224Z,101937.81
2023-02-15T05:48:22.699Z,101942.09
2023-02-15T05:52:35.316Z,101946.50
2023-02-15T05:56:44.144Z,101951.66
2023-02-15T06:01:11.663Z,101947.25
2023-02-15T06:05:41.161Z,101957.47
2023-02-15T06:09:48.100Z,101949.59
2023-02-15T06:13:55.512Z,101953.00
2023-02-15T06:18:04.721Z,101958.91
2023-02-15T06:31:54.970Z,101963.00
2023-02-15T06:36:21.661Z,101955.75
2023-02-15T06:40:24.384Z,101959.81
2023-02-15T06:48:49.311Z,101964.50
2023-02-15T06:53:06.292Z,101963.34
2023-02-15T06:57:10.707Z,101959.56
2023-02-15T07:01:15.390Z,101963.47
2023-02-15T07:05:19.122Z,101964.81
2023-02-15T07:09:24.130Z,101967.84
2023-02-15T07:13:26.971Z,101971.69
2023-02-15T07:17:35.864Z,101967.53
2023-02-15T07:21:39.715Z,101977.34
2023-02-15T07:25:43.663Z,101974.41
2023-02-15T07:29:47.213Z,101969.37
2023-02-15T07:33:53.157Z,101955.53
2023-02-15T07:37:59.458Z,101967.53
2023-02-15T07:46:58.358Z,101958.81
2023-02-15T07:51:22.556Z,101959.59
2023-02-15T07:55:38.036Z,101961.22
2023-02-15T08:00:01.800Z,101959.97
2023-02-15T08:04:19.164Z,101945.50
2023-02-15T08:08:31.200Z,101945.75
2023-02-15T08:13:00.164Z,101944.84
2023-02-15T08:21:38.718Z,101946.13
2023-02-15T08:26:02.026Z,101933.00
2023-02-15T08:30:13.968Z,101934.19
2023-02-15T08:34:26.311Z,101928.16
2023-02-15T08:38:33.448Z,101932.44
2023-02-15T08:42:38.564Z,101938.87
2023-02-15T08:46:44.325Z,101925.56
2023-02-15T08:50:48.181Z,101924.22
2023-02-15T08:54:53.985Z,101927.06
2023-02-15T09:07:32.388Z,101916.84
2023-02-15T09:11:43.116Z,101923.66
2023-02-15T09:15:50.497Z,101919.94
2023-02-15T09:19:55.188Z,101913.25
2023-02-15T09:24:03.629Z,101915.25
2023-02-15T09:28:12.785Z,101918.59
2023-02-15T09:32:16.607Z,101915.25
2023-02-15T09:36:27.960Z,101906.28
2023-02-15T09:40:36.537Z,101913.50
2023-02-15T09:44:44.540Z,101901.69
2023-02-15T09:48:54.428Z,101905.38
2023-02-15T09:53:34.767Z,101898.00
2023-02-15T09:58:13.947Z,101906.91
2023-02-15T10:02:19.981Z,101900.63
2023-02-15T10:06:51.864Z,101889.06
2023-02-15T10:11:42.892Z,101892.59
2023-02-15T10:15:55.103Z,101884.97
2023-02-15T10:20:35.439Z,101874.28
2023-02-15T10:29:53.053Z,101870.16
2023-02-15T10:34:14.326Z,101866.66
2023-02-15T10:38:42.306Z,101860.59
2023-02-15T10:43:10.403Z,101865.31
2023-02-15T10:47:19.297Z,101858.19
2023-02-15T10:51:52.995Z,101859.28
2023-02-15T10:56:43.913Z,101858.81
2023-02-15T11:01:21.139Z,101857.66
2023-02-15T11:05:40.357Z,101850.13
2023-02-15T11:09:56.185Z,101849.69
2023-02-15T11:14:03.072Z,101840.06
2023-02-15T11:18:32.034Z,101839.25
2023-02-15T11:22:40.294Z,101831.72
2023-02-15T11:26:51.429Z,101828.16
2023-02-15T11:31:03.393Z,101828.34
2023-02-15T11:40:38.366Z,101818.12
2023-02-15T11:44:53.187Z,101806.69
2023-02-15T11:48:57.814Z,101811.19
2023-02-15T11:53:12.090Z,101798.44
2023-02-15T11:57:33.245Z,101797.69
2023-02-15T12:01:55.544Z,101798.19
2023-02-15T12:06:38.491Z,101784.81
2023-02-15T12:11:10.069Z,101789.19
2023-02-15T12:20:28.109Z,101771.88
2023-02-15T12:24:57.346Z,101771.03
2023-02-15T12:29:19.565Z,101759.13
2023-02-15T12:33:47.194Z,101761.03
2023-02-15T12:38:11.237Z,101757.00
2023-02-15T12:42:47.381Z,101751.78
2023-02-15T12:47:29.020Z,101744.94
2023-02-15T12:51:55.549Z,101741.59
2023-02-15T12:56:11.313Z,101725.59
2023-02-15T13:00:22.599Z,101723.50
2023-02-15T13:04:31.089Z,101728.13
2023-02-15T13:08:48.230Z,101721.19
2023-02-15T13:13:19.221Z,101710.25
2023-02-15T13:17:34.849Z,101697.22
2023-02-15T13:21:42.559Z,101702.19
2023-02-15T13:25:51.813Z,101707.75
2023-02-15T13:30:00.724Z,101696.00
2023-02-15T13:34:21.714Z,101691.59
2023-02-15T13:38:51.777Z,101695.59
2023-02-15T13:43:13.811Z,101688.47
2023-02-15T13:47:54.276Z,101679.09
2023-02-15T13:52:09.474Z,101687.47
2023-02-15T13:56:34.398Z,101676.00
2023-02-15T14:00:37.770Z,101679.16
2023-02-15T14:05:18.497Z,101682.78
2023-02-15T14:09:28.040Z,101683.91
2023-02-15T14:13:41.470Z,101680.81
2023-02-15T14:17:53.820Z,101675.03
2023-02-15T14:22:27.511Z,101672.75
2023-02-15T14:26:33.510Z,101685.91
2023-02-15T14:30:46.246Z,101683.19
2023-02-15T14:34:55.667Z,101678.03
2023-02-15T14:40:14.257Z,101676.25
2023-02-15T14:44:46.578Z,101678.69
2023-02-15T14:49:12.087Z,101679.75
2023-02-15T14:53:32.107Z,101688.63
2023-02-15T14:57:36.312Z,101683.75
2023-02-15T15:01:41.248Z,101670.72
2023-02-15T15:06:00.468Z,101671.19
2023-02-15T15:10:19.054Z,101664.16
2023-02-15T15:14:34.184Z,101659.19
2023-02-15T15:18:50.170Z,101664.56
2023-02-15T15:23:12.908Z,101670.41
2023-02-15T15:27:37.499Z,101656.78
2023-02-15T15:31:53.719Z,101653.22
2023-02-15T15:35:59.995Z,101647.41
2023-02-15T15:40:21.913Z,101652.97
2023-02-15T15:44:58.919Z,101649.81
2023-02-15T15:49:16.533Z,101652.28
2023-02-15T15:53:24.536Z,101646.91
2023-02-15T15:57:33.925Z,101630.47
2023-02-15T16:01:42.417Z,101644.34
2023-02-15T16:05:45.649Z,101643.53
2023-02-15T16:10:26.138Z,101644.44
2023-02-15T16:14:36.619Z,101647.75
2023-02-15T16:18:43.627Z,101644.91
